createdAt,value
2019-02-23T00:01:33.566Z,6.43
2019-02-23T00:04:04.572Z,6.40
2019-02-23T00:06:35.640Z,6.37
2019-02-23T00:09:07.252Z,6.39
2019-02-23T00:11:39.192Z,6.42
2019-02-23T00:14:10.022Z,6.37
2019-02-23T00:16:41.092Z,6.26
2019-02-23T00:19:11.953Z,6.21
2019-02-23T00:21:43.735Z,6.30
2019-02-23T00:24:14.723Z,6.26
2019-02-23T00:26:45.672Z,6.17
2019-02-23T00:29:16.731Z,6.26
2019-02-23T00:31:47.711Z,6.22
2019-02-23T00:34:18.773Z,6.12
2019-02-23T00:36:49.901Z,6.14
2019-02-23T00:39:20.847Z,6.12
2019-02-23T00:41:51.849Z,6.03
2019-02-23T00:44:22.848Z,5.91
2019-02-23T00:46:53.845Z,5.82
2019-02-23T00:49:35.537Z,5.81
2019-02-23T00:51:57.459Z,5.80
2019-02-23T00:54:28.202Z,5.76
2019-02-23T00:56:59.191Z,5.71
2019-02-23T00:59:29.976Z,5.58
2019-02-23T01:02:00.840Z,5.54
2019-02-23T01:04:31.594Z,5.56
2019-02-23T01:07:02.598Z,5.53
2019-02-23T01:09:33.346Z,5.50
2019-02-23T01:12:04.524Z,5.46
2019-02-23T01:14:35.338Z,5.56
2019-02-23T01:17:06.730Z,5.52
2019-02-23T01:19:47.445Z,5.66
2019-02-23T01:22:11.391Z,5.55
2019-02-23T01:24:42.133Z,5.58
2019-02-23T01:27:13.215Z,5.59
2019-02-23T01:29:43.974Z,5.54
2019-02-23T01:32:14.958Z,5.55
2019-02-23T01:34:45.929Z,5.35
2019-02-23T01:37:16.918Z,5.18
2019-02-23T01:39:47.982Z,5.05
2019-02-23T01:42:18.738Z,4.92
2019-02-23T01:44:49.743Z,4.96
2019-02-23T01:47:21.115Z,4.88
2019-02-23T01:49:58.962Z,4.90
2019-02-23T01:52:24.569Z,4.92
2019-02-23T01:54:55.572Z,4.97
2019-02-23T01:57:26.626Z,4.89
2019-02-23T01:59:58.056Z,4.79
2019-02-23T02:02:29.564Z,4.67
2019-02-23T02:05:00.389Z,4.70
2019-02-23T02:07:31.235Z,4.87
2019-02-23T02:10:04.362Z,4.90
2019-02-23T02:12:35.546Z,4.93
2019-02-23T02:15:11.230Z,4.96
2019-02-23T02:17:42.086Z,4.99
2019-02-23T02:20:13.179Z,4.83
2019-02-23T02:22:44.254Z,4.74
2019-02-23T02:25:15.200Z,4.75
2019-02-23T02:27:46.359Z,4.52
2019-02-23T02:30:18.431Z,4.63
2019-02-23T02:32:49.469Z,4.62
2019-02-23T02:35:20.191Z,4.39
2019-02-23T02:37:51.441Z,4.33
2019-02-23T02:40:23.460Z,4.42
2019-02-23T02:42:54.338Z,4.34
2019-02-23T02:45:25.090Z,4.15
2019-02-23T02:47:55.845Z,4.13
2019-02-23T02:50:27.172Z,3.91
2019-02-23T02:52:58.165Z,3.92
2019-02-23T02:55:28.916Z,3.98
2019-02-23T02:57:59.935Z,4.10
2019-02-23T03:00:31.370Z,4.05
2019-02-23T03:03:02.400Z,4.07
2019-02-23T03:05:33.637Z,4.01
2019-02-23T03:08:04.696Z,3.83
2019-02-23T03:10:35.947Z,3.70
2019-02-23T03:13:07.525Z,3.93
2019-02-23T03:15:38.498Z,3.80
2019-02-23T03:18:09.259Z,3.66
2019-02-23T03:20:40.287Z,3.80
2019-02-23T03:23:12.637Z,3.94
2019-02-23T03:25:44.653Z,3.78
2019-02-23T03:28:15.670Z,3.85
2019-02-23T03:30:46.494Z,3.82
2019-02-23T03:33:17.590Z,3.86
2019-02-23T03:35:48.334Z,3.96
2019-02-23T03:38:19.809Z,3.83
2019-02-23T03:40:50.819Z,3.75
2019-02-23T03:43:22.112Z,3.69
2019-02-23T03:45:53.139Z,3.72
2019-02-23T03:48:23.898Z,3.65
2019-02-23T03:50:54.993Z,3.61
2019-02-23T03:53:26.441Z,3.58
2019-02-23T03:55:58.045Z,3.63
2019-02-23T03:58:29.303Z,3.64
2019-02-23T04:01:00.706Z,3.55
2019-02-23T04:03:31.468Z,3.50
2019-02-23T04:06:02.209Z,3.47
2019-02-23T04:08:33.252Z,3.38
2019-02-23T04:11:04.225Z,3.34
2019-02-23T04:13:35.644Z,3.27
2019-02-23T04:16:06.385Z,3.25
2019-02-23T04:18:37.506Z,3.27
2019-02-23T04:21:08.795Z,3.28
2019-02-23T04:23:40.018Z,3.23
2019-02-23T04:26:10.994Z,3.15
2019-02-23T04:28:42.127Z,3.13
2019-02-23T04:31:13.113Z,3.25
2019-02-23T04:33:43.939Z,3.17
2019-02-23T04:36:14.723Z,3.22
2019-02-23T04:38:45.718Z,3.16
2019-02-23T04:41:17.198Z,3.18
2019-02-23T04:43:47.963Z,3.15
2019-02-23T04:46:18.849Z,3.09
2019-02-23T04:48:49.821Z,3.19
2019-02-23T04:51:21.062Z,3.18
2019-02-23T04:53:51.834Z,3.19
2019-02-23T04:56:22.693Z,3.11
2019-02-23T04:58:53.569Z,3.05
2019-02-23T05:01:24.842Z,2.99
2019-02-23T05:03:55.877Z,2.93
2019-02-23T05:06:26.778Z,2.92
2019-02-23T05:08:58.165Z,2.93
2019-02-23T05:11:28.932Z,2.82
2019-02-23T05:13:59.985Z,2.55
2019-02-23T05:16:31.281Z,2.49
2019-02-23T05:19:03.262Z,2.37
2019-02-23T05:21:34.017Z,2.21
2019-02-23T05:24:05.006Z,2.11
2019-02-23T05:26:35.755Z,1.91
2019-02-23T05:29:06.624Z,1.98
2019-02-23T05:31:37.569Z,1.94
2019-02-23T05:34:08.589Z,1.87
2019-02-23T05:36:39.902Z,1.82
2019-02-23T05:39:10.906Z,1.75
2019-02-23T05:41:41.839Z,1.70
2019-02-23T05:44:13.221Z,1.63
2019-02-23T05:46:44.335Z,1.50
2019-02-23T05:49:15.667Z,1.43
2019-02-23T05:51:46.727Z,1.38
2019-02-23T05:54:17.716Z,1.34
2019-02-23T05:56:48.772Z,1.68
2019-02-23T05:59:19.522Z,1.51
2019-02-23T06:01:50.754Z,1.46
2019-02-23T06:04:21.766Z,1.37
2019-02-23T06:06:52.827Z,1.40
2019-02-23T06:09:23.657Z,1.48
2019-02-23T06:11:54.664Z,1.42
2019-02-23T06:14:25.959Z,1.36
2019-02-23T06:16:56.778Z,1.28
2019-02-23T06:19:28.091Z,1.20
2019-02-23T06:21:59.310Z,1.18
2019-02-23T06:24:30.317Z,1.22
2019-02-23T06:27:01.562Z,1.28
2019-02-23T06:29:32.570Z,1.28
2019-02-23T06:32:03.450Z,1.28
2019-02-23T06:34:34.211Z,1.17
2019-02-23T06:37:05.433Z,1.08
2019-02-23T06:39:37.878Z,1.06
2019-02-23T06:42:08.885Z,1.14
2019-02-23T06:44:40.327Z,1.13
2019-02-23T06:47:11.731Z,1.16
2019-02-23T06:49:42.585Z,1.36
2019-02-23T06:52:14.073Z,1.32
2019-02-23T06:54:45.412Z,1.25
2019-02-23T06:57:16.194Z,1.22
2019-02-23T06:59:47.295Z,1.29
2019-02-23T07:02:18.046Z,1.26
2019-02-23T07:04:49.030Z,1.29
2019-02-23T07:07:19.916Z,1.41
2019-02-23T07:09:50.927Z,1.55
2019-02-23T07:12:21.678Z,1.56
2019-02-23T07:14:52.941Z,1.46
2019-02-23T07:17:23.683Z,1.41
2019-02-23T07:19:56.526Z,1.58
2019-02-23T07:22:27.783Z,1.80
2019-02-23T07:24:58.778Z,1.78
2019-02-23T07:27:29.534Z,1.70
2019-02-23T07:30:00.649Z,1.84
2019-02-23T07:32:31.503Z,2.57
2019-02-23T07:35:02.689Z,2.43
2019-02-23T07:37:33.481Z,2.40
2019-02-23T07:40:04.782Z,2.36
2019-02-23T07:42:35.568Z,2.50
2019-02-23T07:45:06.751Z,2.60
2019-02-23T07:47:37.775Z,2.78
2019-02-23T07:50:09.044Z,2.83
2019-02-23T07:52:39.972Z,3.00
2019-02-23T07:55:11.145Z,3.30
2019-02-23T07:57:42.087Z,3.46
2019-02-23T08:00:12.927Z,3.43
2019-02-23T08:02:44.389Z,3.48
2019-02-23T08:05:15.935Z,3.56
2019-02-23T08:07:46.684Z,3.66
2019-02-23T08:10:17.801Z,3.90
2019-02-23T08:12:48.633Z,3.95
2019-02-23T08:15:19.662Z,4.11
2019-02-23T08:17:50.547Z,4.14
2019-02-23T08:20:21.320Z,4.24
2019-02-23T08:22:52.338Z,4.29
2019-02-23T08:25:23.176Z,4.35
2019-02-23T08:27:54.178Z,4.38
2019-02-23T08:30:25.522Z,4.47
2019-02-23T08:32:56.380Z,4.64
2019-02-23T08:35:27.431Z,4.70
2019-02-23T08:37:58.478Z,4.89
2019-02-23T08:40:29.490Z,4.83
2019-02-23T08:43:00.532Z,5.08
2019-02-23T08:45:31.677Z,5.10
2019-02-23T08:48:03.129Z,5.26
2019-02-23T08:50:34.215Z,5.27
2019-02-23T08:53:05.211Z,5.23
2019-02-23T08:55:36.360Z,5.24
2019-02-23T08:58:07.105Z,5.28
2019-02-23T09:00:38.094Z,5.48
2019-02-23T09:03:09.146Z,5.58
2019-02-23T09:05:39.943Z,5.57
2019-02-23T09:08:10.769Z,5.74
2019-02-23T09:10:41.643Z,5.67
2019-02-23T09:13:12.886Z,5.76
2019-02-23T09:15:44.233Z,5.97
2019-02-23T09:18:15.495Z,6.09
2019-02-23T09:20:46.276Z,6.15
2019-02-23T09:23:17.325Z,6.23
2019-02-23T09:25:48.320Z,6.15
2019-02-23T09:28:19.316Z,6.28
2019-02-23T09:30:51.146Z,6.39
2019-02-23T09:33:22.137Z,6.36
2019-02-23T09:35:53.200Z,6.59
2019-02-23T09:38:24.197Z,6.72
2019-02-23T09:40:54.948Z,6.91
2019-02-23T09:43:27.173Z,6.97
2019-02-23T09:45:58.005Z,6.92
2019-02-23T09:48:29.073Z,7.11
2019-02-23T09:51:00.055Z,7.09
2019-02-23T09:53:31.386Z,7.29
2019-02-23T09:56:02.618Z,7.38
2019-02-23T09:58:33.811Z,7.45
2019-02-23T10:01:05.512Z,7.68
2019-02-23T10:03:36.276Z,7.87
2019-02-23T10:06:07.524Z,7.81
2019-02-23T10:08:38.642Z,7.98
2019-02-23T10:11:09.405Z,7.82
2019-02-23T10:13:41.035Z,8.09
2019-02-23T10:16:12.361Z,8.14
2019-02-23T10:18:43.403Z,8.07
2019-02-23T10:21:14.523Z,8.30
2019-02-23T10:23:45.309Z,8.42
2019-02-23T10:26:16.295Z,8.52
2019-02-23T10:28:47.364Z,8.49
2019-02-23T10:31:18.356Z,8.66
2019-02-23T10:33:49.514Z,8.75
2019-02-23T10:36:20.513Z,8.92
2019-02-23T10:38:51.590Z,9.08
2019-02-23T10:41:22.358Z,9.13
2019-02-23T10:43:53.327Z,9.24
2019-02-23T10:46:24.304Z,9.46
2019-02-23T10:48:55.153Z,9.70
2019-02-23T10:51:26.157Z,9.82
2019-02-23T10:53:56.996Z,9.93
2019-02-23T10:56:27.851Z,9.89
2019-02-23T10:58:59.072Z,10.05
2019-02-23T11:01:29.897Z,9.78
2019-02-23T11:04:00.860Z,10.03
2019-02-23T11:06:31.978Z,10.06
2019-02-23T11:09:04.336Z,10.02
2019-02-23T11:11:36.786Z,9.83
2019-02-23T11:14:07.741Z,9.95
2019-02-23T11:16:38.809Z,10.16
2019-02-23T11:19:09.949Z,10.17
2019-02-23T11:21:41.237Z,10.27
2019-02-23T11:24:12.275Z,10.46
2019-02-23T11:26:43.292Z,10.50
2019-02-23T11:29:14.052Z,10.65
2019-02-23T11:31:45.918Z,10.73
2019-02-23T11:34:17.331Z,10.56
2019-02-23T11:36:48.509Z,10.66
2019-02-23T11:39:19.323Z,10.69
2019-02-23T11:41:50.457Z,10.85
2019-02-23T11:44:21.194Z,11.18
2019-02-23T11:47:00.044Z,11.17
2019-02-23T11:49:24.409Z,11.09
2019-02-23T11:51:55.232Z,11.18
2019-02-23T11:54:26.267Z,11.19
2019-02-23T11:56:57.265Z,11.19
2019-02-23T11:59:28.290Z,11.18
2019-02-23T12:01:59.262Z,11.09
2019-02-23T12:04:30.050Z,11.10
2019-02-23T12:07:00.795Z,11.27
2019-02-23T12:09:31.562Z,11.34
2019-02-23T12:12:02.533Z,11.58
2019-02-23T12:14:33.510Z,11.75
2019-02-23T12:17:04.333Z,11.72
2019-02-23T12:19:35.596Z,11.70
2019-02-23T12:22:12.374Z,11.79
2019-02-23T12:24:39.333Z,11.79
2019-02-23T12:27:10.146Z,11.72
2019-02-23T12:29:41.182Z,11.85
2019-02-23T12:32:12.520Z,11.77
2019-02-23T12:34:43.510Z,11.86
2019-02-23T12:37:14.338Z,12.00
2019-02-23T12:39:45.285Z,11.74
2019-02-23T12:42:16.023Z,11.69
2019-02-23T12:44:47.256Z,11.60
2019-02-23T12:47:18.111Z,11.72
2019-02-23T12:49:48.883Z,11.53
2019-02-23T12:52:19.944Z,11.53
2019-02-23T12:54:51.304Z,11.48
2019-02-23T12:57:22.332Z,11.62
2019-02-23T12:59:53.383Z,11.58
2019-02-23T13:02:24.129Z,11.64
2019-02-23T13:04:55.225Z,11.79
2019-02-23T13:07:26.063Z,11.46
2019-02-23T13:09:57.336Z,11.69
2019-02-23T13:13:05.659Z,11.62
2019-02-23T13:16:03.493Z,11.71
2019-02-23T13:19:20.991Z,11.57
2019-02-23T13:22:05.924Z,11.53
2019-02-23T13:25:05.869Z,11.56
2019-02-23T13:28:14.668Z,11.60
2019-02-23T13:31:34.109Z,11.82
2019-02-23T13:35:07.861Z,11.58
2019-02-23T13:38:06.527Z,11.67
2019-02-23T13:41:08.110Z,11.52
2019-02-23T13:44:28.233Z,11.69
2019-02-23T13:47:50.347Z,11.73
2019-02-23T13:51:09.412Z,11.69
2019-02-23T13:54:07.532Z,11.86
2019-02-23T13:57:22.350Z,11.79
2019-02-23T14:00:18.081Z,11.73
2019-02-23T14:03:51.857Z,11.54
2019-02-23T14:06:59.738Z,11.58
2019-02-23T14:10:10.479Z,11.57
2019-02-23T14:12:51.536Z,11.16
2019-02-23T14:15:44.352Z,11.30
2019-02-23T14:18:47.237Z,11.37
2019-02-23T14:22:13.300Z,11.48
2019-02-23T14:25:18.134Z,11.18
2019-02-23T14:28:24.187Z,11.18
2019-02-23T14:31:36.849Z,11.24
2019-02-23T14:34:34.094Z,11.16
2019-02-23T14:37:29.933Z,11.15
2019-02-23T14:40:44.274Z,11.22
2019-02-23T14:43:46.050Z,11.30
2019-02-23T14:46:58.417Z,11.33
2019-02-23T14:49:38.191Z,11.06
2019-02-23T14:52:35.039Z,11.05
2019-02-23T14:55:26.771Z,10.86
2019-02-23T14:58:25.874Z,10.81
2019-02-23T15:01:25.751Z,10.82
2019-02-23T15:04:45.404Z,10.64
2019-02-23T15:07:47.758Z,10.71
2019-02-23T15:10:59.299Z,10.59
2019-02-23T15:14:05.367Z,10.62
2019-02-23T15:17:19.053Z,10.47
2019-02-23T15:20:15.703Z,10.52
2019-02-23T15:23:25.086Z,10.51
2019-02-23T15:26:49.080Z,10.42
2019-02-23T15:29:48.131Z,10.37
2019-02-23T15:32:47.623Z,10.28
2019-02-23T15:36:10.311Z,10.25
2019-02-23T15:39:25.867Z,10.18
2019-02-23T15:42:25.924Z,10.13
2019-02-23T15:45:52.422Z,10.07
2019-02-23T15:48:44.145Z,9.96
2019-02-23T15:51:15.587Z,9.85
2019-02-23T15:53:46.631Z,9.81
2019-02-23T15:56:17.350Z,9.69
2019-02-23T15:58:48.394Z,9.57
2019-02-23T16:01:19.595Z,9.42
2019-02-23T16:03:50.675Z,9.38
2019-02-23T16:06:21.746Z,9.28
2019-02-23T16:08:52.944Z,9.16
2019-02-23T16:11:23.786Z,9.07
2019-02-23T16:13:54.600Z,9.02
2019-02-23T16:16:25.572Z,8.85
2019-02-23T16:18:56.301Z,8.74
2019-02-23T16:21:27.611Z,8.65
2019-02-23T16:23:58.798Z,8.57
2019-02-23T16:26:29.892Z,8.39
2019-02-23T16:29:01.024Z,8.22
2019-02-23T16:31:31.791Z,8.16
2019-02-23T16:34:02.539Z,7.99
2019-02-23T16:36:33.620Z,7.93
2019-02-23T16:39:09.520Z,7.87
2019-02-23T16:41:42.109Z,7.71
2019-02-23T16:44:13.176Z,7.42
2019-02-23T16:46:46.378Z,7.31
2019-02-23T16:49:17.548Z,7.11
2019-02-23T16:51:49.224Z,7.05
2019-02-23T16:54:19.983Z,6.81
2019-02-23T16:56:50.749Z,6.67
2019-02-23T16:59:21.836Z,6.43
2019-02-23T17:01:52.738Z,6.24
2019-02-23T17:04:24.333Z,6.05
2019-02-23T17:06:55.414Z,6.04
2019-02-23T17:09:26.269Z,5.80
2019-02-23T17:11:57.026Z,5.63
2019-02-23T17:14:27.834Z,5.46
2019-02-23T17:16:58.927Z,5.23
2019-02-23T17:19:29.966Z,5.16
2019-02-23T17:22:01.665Z,4.99
2019-02-23T17:24:32.874Z,4.99
2019-02-23T17:27:03.906Z,4.94
2019-02-23T17:29:34.820Z,4.93
2019-02-23T17:32:05.894Z,4.85
2019-02-23T17:34:36.938Z,4.81
2019-02-23T17:37:07.704Z,4.83
2019-02-23T17:39:38.448Z,4.75
2019-02-23T17:42:09.568Z,4.73
2019-02-23T17:44:40.716Z,4.57
2019-02-23T17:47:11.466Z,4.65
2019-02-23T17:49:42.432Z,4.55
2019-02-23T17:52:13.241Z,4.45
2019-02-23T17:54:44.480Z,4.45
2019-02-23T17:57:15.460Z,4.41
2019-02-23T17:59:46.430Z,4.35
2019-02-23T18:02:17.471Z,4.27
2019-02-23T18:04:48.216Z,4.30
2019-02-23T18:07:20.309Z,4.23
2019-02-23T18:09:52.545Z,4.31
2019-02-23T18:12:23.389Z,4.62
2019-02-23T18:14:54.431Z,4.56
2019-02-23T18:17:25.261Z,4.39
2019-02-23T18:19:56.912Z,4.32
2019-02-23T18:22:28.204Z,4.33
2019-02-23T18:24:59.045Z,4.35
2019-02-23T18:27:30.151Z,4.36
2019-02-23T18:30:10.758Z,4.32
2019-02-23T18:32:34.854Z,4.59
2019-02-23T18:35:05.905Z,4.67
2019-02-23T18:37:36.798Z,4.87
2019-02-23T18:40:07.777Z,4.91
2019-02-23T18:42:38.997Z,4.77
2019-02-23T18:45:09.975Z,4.74
2019-02-23T18:47:40.792Z,4.61
2019-02-23T18:50:11.672Z,4.58
2019-02-23T18:52:42.553Z,4.42
2019-02-23T18:55:13.441Z,4.39
2019-02-23T18:57:44.538Z,4.27
2019-02-23T19:00:23.997Z,4.24
2019-02-23T19:02:48.341Z,4.15
2019-02-23T19:05:19.958Z,4.51
2019-02-23T19:07:51.321Z,4.29
2019-02-23T19:10:22.696Z,4.28
2019-02-23T19:12:54.173Z,4.38
2019-02-23T19:15:25.224Z,4.37
2019-02-23T19:17:56.239Z,4.22
2019-02-23T19:20:27.139Z,4.17
2019-02-23T19:22:58.297Z,4.08
2019-02-23T19:25:30.115Z,4.04
2019-02-23T19:28:01.218Z,4.23
2019-02-23T19:30:32.422Z,4.26
2019-02-23T19:33:03.767Z,4.30
2019-02-23T19:35:34.832Z,4.39
2019-02-23T19:38:05.606Z,4.46
2019-02-23T19:40:36.965Z,4.41
2019-02-23T19:43:07.957Z,4.25
2019-02-23T19:45:39.076Z,4.25
2019-02-23T19:48:10.144Z,4.28
2019-02-23T19:50:44.352Z,4.38
2019-02-23T19:53:15.827Z,4.52
2019-02-23T19:55:46.917Z,4.56
2019-02-23T19:58:18.367Z,5.00
2019-02-23T20:00:49.109Z,5.14
2019-02-23T20:03:21.624Z,5.24
2019-02-23T20:05:52.975Z,5.44
2019-02-23T20:08:24.639Z,5.36
2019-02-23T20:10:55.837Z,5.62
2019-02-23T20:13:27.811Z,5.41
2019-02-23T20:15:58.544Z,5.29
2019-02-23T20:18:29.352Z,5.48
2019-02-23T20:21:00.155Z,5.68
2019-02-23T20:23:31.233Z,5.70
2019-02-23T20:26:02.196Z,5.63
2019-02-23T20:28:33.179Z,5.36
2019-02-23T20:31:03.907Z,5.21
2019-02-23T20:33:34.659Z,5.22
2019-02-23T20:36:05.871Z,5.33
2019-02-23T20:38:36.916Z,5.08
2019-02-23T20:41:08.119Z,4.89
2019-02-23T20:43:39.440Z,4.77
2019-02-23T20:46:11.261Z,4.62
2019-02-23T20:48:42.283Z,4.47
2019-02-23T20:51:13.021Z,4.40
2019-02-23T20:53:44.437Z,4.29
2019-02-23T20:56:15.168Z,4.15
2019-02-23T20:58:46.140Z,4.23
2019-02-23T21:01:17.107Z,4.25
2019-02-23T21:03:47.865Z,4.23
2019-02-23T21:06:18.879Z,4.51
2019-02-23T21:08:49.641Z,4.91
2019-02-23T21:11:20.364Z,4.62
2019-02-23T21:13:51.748Z,4.44
2019-02-23T21:16:22.730Z,4.67
2019-02-23T21:18:53.513Z,4.54
2019-02-23T21:21:24.484Z,4.42
2019-02-23T21:23:55.235Z,4.31
2019-02-23T21:26:26.318Z,4.31
2019-02-23T21:28:57.528Z,4.23
2019-02-23T21:31:28.270Z,4.21
2019-02-23T21:33:59.372Z,4.07
2019-02-23T21:36:30.109Z,4.16
2019-02-23T21:39:01.528Z,4.17
2019-02-23T21:41:34.221Z,4.25
2019-02-23T21:44:05.448Z,4.02
2019-02-23T21:46:36.127Z,3.72
2019-02-23T21:49:07.261Z,3.49
2019-02-23T21:51:37.995Z,3.28
2019-02-23T21:54:10.663Z,3.24
2019-02-23T21:56:41.844Z,3.24
2019-02-23T21:59:12.584Z,3.20
2019-02-23T22:01:43.664Z,3.00
2019-02-23T22:04:14.487Z,2.96
2019-02-23T22:06:45.868Z,2.86
2019-02-23T22:09:16.826Z,2.72
2019-02-23T22:11:47.554Z,2.63
2019-02-23T22:14:18.526Z,2.48
2019-02-23T22:16:49.518Z,2.37
2019-02-23T22:19:20.738Z,2.27
2019-02-23T22:21:51.474Z,2.24
2019-02-23T22:24:22.552Z,2.08
2019-02-23T22:26:53.282Z,2.02
2019-02-23T22:29:24.274Z,2.08
2019-02-23T22:31:55.244Z,2.05
2019-02-23T22:34:25.989Z,2.00
2019-02-23T22:36:57.289Z,1.97
2019-02-23T22:39:28.035Z,2.01
2019-02-23T22:41:58.950Z,2.12
2019-02-23T22:44:30.047Z,2.02
2019-02-23T22:47:01.099Z,1.94
2019-02-23T22:49:31.860Z,1.85
2019-02-23T22:52:02.613Z,1.75
2019-02-23T22:54:33.386Z,1.74
2019-02-23T22:57:04.473Z,1.65
2019-02-23T22:59:35.270Z,1.63
2019-02-23T23:02:06.017Z,1.61
2019-02-23T23:04:37.408Z,1.54
2019-02-23T23:07:08.815Z,1.58
2019-02-23T23:09:39.853Z,1.56
2019-02-23T23:12:10.904Z,1.48
2019-02-23T23:14:41.944Z,1.41
2019-02-23T23:17:13.261Z,1.41
2019-02-23T23:19:44.003Z,1.43
2019-02-23T23:22:15.229Z,1.43
2019-02-23T23:24:45.967Z,1.42
2019-02-23T23:27:17.111Z,1.38
2019-02-23T23:29:48.321Z,1.47
2019-02-23T23:32:20.433Z,1.46
2019-02-23T23:34:51.180Z,1.45
2019-02-23T23:37:21.938Z,1.52
2019-02-23T23:39:53.778Z,1.46
2019-02-23T23:42:24.606Z,1.54
2019-02-23T23:44:55.873Z,1.48
2019-02-23T23:47:26.624Z,1.50
2019-02-23T23:49:57.461Z,1.50
2019-02-23T23:52:28.257Z,1.50
2019-02-23T23:54:59.749Z,1.52
2019-02-23T23:57:30.978Z,1.63
